Time;durP1;ratioP1;P1;durP2;ratioP2;P2;SDS_P1;SDS_P2;PMS_P1;PMS_P2;Temp;Humidity;BMP_temperature;BMP_pressure;BME280_temperature;BME280_humidity;BME280_pressure;Samples;Min_cycle;Max_cycle;Signal;HPM_P1;HPM_P2
2021/01/17 00:00:28;;;;;;;6.67;5.73;;;;;;;;;;5060564;28;21319;-74
2021/01/17 00:02:55;;;;;;;8.70;6.27;;;;;;;;;;5060792;28;20448;-73
2021/01/17 00:05:22;;;;;;;8.00;5.73;;;;;;;;;;5060507;28;20520;-73
2021/01/17 00:07:49;;;;;;;8.07;5.40;;;;;;;;;;5060712;28;20505;-74
2021/01/17 00:10:17;;;;;;;17.17;6.57;;;;;;;;;;5060284;28;20503;-74
2021/01/17 00:12:47;;;;;;;7.97;5.60;;;;;;;;;;5060320;28;20449;-74
2021/01/17 00:15:14;;;;;;;6.53;5.20;;;;;;;;;;5060010;28;20469;-74
2021/01/17 00:17:42;;;;;;;7.27;5.77;;;;;;;;;;5060715;28;20449;-74
2021/01/17 00:20:10;;;;;;;8.00;5.40;;;;;;;;;;5060345;28;20453;-74
2021/01/17 00:22:37;;;;;;;7.90;5.83;;;;;;;;;;5060435;28;20484;-74
2021/01/17 00:25:05;;;;;;;7.60;5.23;;;;;;;;;;5060255;28;20469;-74
2021/01/17 00:27:32;;;;;;;6.67;5.40;;;;;;;;;;5059963;28;20556;-74
2021/01/17 00:30:00;;;;;;;8.07;5.50;;;;;;;;;;5059625;28;20580;-74
2021/01/17 00:32:27;;;;;;;8.03;5.17;;;;;;;;;;5060191;28;20442;-74
2021/01/17 00:34:54;;;;;;;6.03;4.60;;;;;;;;;;5059741;28;20511;-74
2021/01/17 00:37:21;;;;;;;6.10;5.00;;;;;;;;;;5059871;28;20533;-74
2021/01/17 00:39:48;;;;;;;7.33;4.90;;;;;;;;;;5059590;28;20477;-73
2021/01/17 00:42:16;;;;;;;8.17;5.40;;;;;;;;;;5059299;28;20445;-75
2021/01/17 00:44:43;;;;;;;6.20;4.77;;;;;;;;;;5059553;28;20501;-74
2021/01/17 00:47:11;;;;;;;5.67;4.73;;;;;;;;;;5059887;28;20524;-74
2021/01/17 00:49:39;;;;;;;5.77;4.70;;;;;;;;;;5059819;28;20493;-73
2021/01/17 00:52:06;;;;;;;5.30;4.80;;;;;;;;;;5059535;28;20449;-74
2021/01/17 00:54:33;;;;;;;6.33;4.43;;;;;;;;;;5059675;28;20549;-73
2021/01/17 00:57:03;;;;;;;6.47;5.43;;;;;;;;;;5059630;28;20952;-74
2021/01/17 00:59:30;;;;;;;6.57;5.30;;;;;;;;;;5059539;28;20526;-74
2021/01/17 01:01:57;;;;;;;6.47;5.17;;;;;;;;;;5059453;28;20438;-74
2021/01/17 01:04:25;;;;;;;8.77;5.70;;;;;;;;;;5059538;28;20544;-74
2021/01/17 01:06:52;;;;;;;7.73;5.70;;;;;;;;;;5059177;28;20441;-74
2021/01/17 01:09:19;;;;;;;6.43;4.70;;;;;;;;;;5059240;28;20987;-74
2021/01/17 01:11:47;;;;;;;7.63;5.73;;;;;;;;;;5059266;28;20450;-74
2021/01/17 01:14:14;;;;;;;7.10;5.70;;;;;;;;;;5059064;28;20469;-74
2021/01/17 01:16:47;;;;;;;7.23;6.23;;;;;;;;;;5059290;28;20445;-74
2021/01/17 01:19:14;;;;;;;7.20;5.13;;;;;;;;;;5059157;28;20445;-74
2021/01/17 01:21:42;;;;;;;6.33;5.37;;;;;;;;;;5058922;28;20979;-74
2021/01/17 01:24:10;;;;;;;9.67;6.87;;;;;;;;;;5058970;28;20465;-74
2021/01/17 01:26:38;;;;;;;8.10;6.00;;;;;;;;;;5059084;28;20442;-74
2021/01/17 01:29:05;;;;;;;8.13;5.43;;;;;;;;;;5058634;28;20474;-74
2021/01/17 01:31:32;;;;;;;6.47;5.23;;;;;;;;;;5059046;28;20495;-74
2021/01/17 01:33:59;;;;;;;8.43;6.03;;;;;;;;;;5059016;28;20840;-74
2021/01/17 01:36:27;;;;;;;8.27;6.27;;;;;;;;;;5058775;28;20437;-74
2021/01/17 01:38:56;;;;;;;7.00;5.17;;;;;;;;;;5058736;28;20564;-74
2021/01/17 01:41:26;;;;;;;9.03;5.47;;;;;;;;;;5058485;28;20476;-74
2021/01/17 01:43:53;;;;;;;8.47;5.27;;;;;;;;;;5058639;28;20484;-74
2021/01/17 01:46:21;;;;;;;7.03;5.33;;;;;;;;;;5058720;28;20452;-74
2021/01/17 01:48:49;;;;;;;8.73;5.57;;;;;;;;;;5058911;28;20449;-74
2021/01/17 01:51:17;;;;;;;6.53;4.97;;;;;;;;;;5058722;28;20449;-74
2021/01/17 01:53:43;;;;;;;7.40;5.50;;;;;;;;;;5057704;28;20954;-74
2021/01/17 01:56:13;;;;;;;5.40;4.87;;;;;;;;;;5058506;28;20469;-74
2021/01/17 01:58:41;;;;;;;8.30;5.43;;;;;;;;;;5058076;28;20532;-74
2021/01/17 02:01:08;;;;;;;6.63;4.93;;;;;;;;;;5058631;28;20441;-74
2021/01/17 02:03:35;;;;;;;6.70;4.97;;;;;;;;;;5058172;28;20879;-74
2021/01/17 02:06:02;;;;;;;6.70;5.13;;;;;;;;;;5058385;28;20533;-74
2021/01/17 02:08:54;;;;;;;8.40;5.37;;;;;;;;;;5058233;28;20472;-74
2021/01/17 02:11:26;;;;;;;5.00;4.50;;;;;;;;;;5058252;28;20524;-74
2021/01/17 02:13:57;;;;;;;8.53;5.17;;;;;;;;;;5058012;28;20477;-74
2021/01/17 02:16:24;;;;;;;6.87;5.27;;;;;;;;;;5058388;28;20441;-74
2021/01/17 02:18:52;;;;;;;7.67;5.40;;;;;;;;;;5058012;28;20818;-74
2021/01/17 02:21:21;;;;;;;9.03;6.10;;;;;;;;;;5057939;28;20944;-74
2021/01/17 02:23:50;;;;;;;6.93;5.07;;;;;;;;;;5058333;28;20447;-74
2021/01/17 02:26:18;;;;;;;8.10;5.93;;;;;;;;;;5057718;28;20461;-74
2021/01/17 02:28:46;;;;;;;7.10;5.23;;;;;;;;;;5057929;28;20481;-73
2021/01/17 02:31:14;;;;;;;7.73;5.77;;;;;;;;;;5057903;28;20485;-73
2021/01/17 02:33:41;;;;;;;6.93;5.70;;;;;;;;;;5057803;28;20840;-73
2021/01/17 02:36:18;;;;;;;7.53;5.73;;;;;;;;;;5057512;28;20462;-73
2021/01/17 02:38:50;;;;;;;7.90;6.17;;;;;;;;;;5057624;28;20503;-73
2021/01/17 02:41:21;;;;;;;8.77;5.90;;;;;;;;;;5057693;28;20449;-74
2021/01/17 02:43:48;;;;;;;9.20;5.50;;;;;;;;;;5057752;28;20476;-74
2021/01/17 02:46:15;;;;;;;8.03;5.53;;;;;;;;;;5057586;28;20525;-74
2021/01/17 02:48:42;;;;;;;7.00;5.77;;;;;;;;;;5057822;28;20532;-74
2021/01/17 02:51:10;;;;;;;8.47;6.13;;;;;;;;;;5057729;28;20563;-74
2021/01/17 02:53:41;;;;;;;8.90;6.57;;;;;;;;;;5058011;28;20536;-74
2021/01/17 02:56:10;;;;;;;10.47;6.57;;;;;;;;;;5057704;28;20475;-74
2021/01/17 02:58:40;;;;;;;9.47;6.63;;;;;;;;;;5057275;28;20804;-75
2021/01/17 03:01:09;;;;;;;7.87;5.73;;;;;;;;;;5057736;28;20449;-74
2021/01/17 03:03:38;;;;;;;9.23;6.50;;;;;;;;;;5057714;28;20456;-74
2021/01/17 03:06:06;;;;;;;7.90;5.97;;;;;;;;;;5061258;28;20473;-74
2021/01/17 03:08:34;;;;;;;10.00;6.77;;;;;;;;;;5062190;28;20522;-75
2021/01/17 03:11:01;;;;;;;8.77;6.20;;;;;;;;;;5061837;28;20481;-75
2021/01/17 03:13:29;;;;;;;8.17;5.67;;;;;;;;;;5061423;28;20441;-75
2021/01/17 03:15:57;;;;;;;9.87;6.10;;;;;;;;;;5061431;28;21025;-74
2021/01/17 03:18:24;;;;;;;7.87;5.93;;;;;;;;;;5061886;28;20445;-74
2021/01/17 03:20:51;;;;;;;8.60;6.03;;;;;;;;;;5061785;28;20528;-74
2021/01/17 03:23:18;;;;;;;9.20;7.30;;;;;;;;;;5062592;28;20480;-74
2021/01/17 03:25:45;;;;;;;9.17;5.57;;;;;;;;;;5063300;28;20496;-75
2021/01/17 03:28:12;;;;;;;10.30;6.47;;;;;;;;;;5062085;28;20510;-74
2021/01/17 03:30:39;;;;;;;9.90;6.70;;;;;;;;;;5061298;28;20846;-75
2021/01/17 03:33:08;;;;;;;9.77;7.03;;;;;;;;;;5061526;28;20445;-74
2021/01/17 03:35:36;;;;;;;9.70;6.83;;;;;;;;;;5060961;28;20515;-75
2021/01/17 03:38:03;;;;;;;10.63;7.20;;;;;;;;;;5061000;28;20833;-75
2021/01/17 03:40:30;;;;;;;9.57;6.67;;;;;;;;;;5061295;28;20446;-75
2021/01/17 03:42:57;;;;;;;9.80;6.60;;;;;;;;;;5060507;28;20520;-74
2021/01/17 03:45:24;;;;;;;13.87;8.07;;;;;;;;;;5060861;28;20480;-74
2021/01/17 03:47:51;;;;;;;10.80;7.47;;;;;;;;;;5060805;28;20813;-74
2021/01/17 03:50:19;;;;;;;9.77;7.53;;;;;;;;;;5060740;28;20885;-74
2021/01/17 03:52:46;;;;;;;13.07;7.50;;;;;;;;;;5060883;28;20528;-74
2021/01/17 03:55:13;;;;;;;11.23;8.17;;;;;;;;;;5060870;28;20500;-74
2021/01/17 03:57:40;;;;;;;13.37;8.63;;;;;;;;;;5060535;28;20556;-74
2021/01/17 04:00:08;;;;;;;15.00;10.10;;;;;;;;;;5060350;28;20437;-74
2021/01/17 04:02:35;;;;;;;14.30;9.03;;;;;;;;;;5060708;28;20451;-74
2021/01/17 04:05:02;;;;;;;13.27;8.40;;;;;;;;;;5060457;28;20551;-74
2021/01/17 04:07:30;;;;;;;12.20;8.23;;;;;;;;;;5060589;28;20880;-74
2021/01/17 04:09:57;;;;;;;15.13;8.90;;;;;;;;;;5060305;28;20995;-74
2021/01/17 04:12:24;;;;;;;12.80;8.60;;;;;;;;;;5060284;28;20444;-74
2021/01/17 04:14:51;;;;;;;11.27;7.70;;;;;;;;;;5060414;28;21003;-75
2021/01/17 04:17:18;;;;;;;12.30;7.93;;;;;;;;;;5059572;28;20450;-74
2021/01/17 04:19:45;;;;;;;22.30;17.60;;;;;;;;;;5060213;28;20470;-74
2021/01/17 04:22:12;;;;;;;14.87;11.43;;;;;;;;;;5060590;28;20449;-74
2021/01/17 04:24:40;;;;;;;14.60;9.17;;;;;;;;;;5059939;28;20475;-74
2021/01/17 04:27:07;;;;;;;13.00;8.57;;;;;;;;;;5060006;28;20495;-74
2021/01/17 04:29:34;;;;;;;11.80;8.53;;;;;;;;;;5059829;28;20456;-75
2021/01/17 04:32:01;;;;;;;12.27;8.90;;;;;;;;;;5060128;28;20453;-75
2021/01/17 04:34:30;;;;;;;16.03;10.00;;;;;;;;;;5059791;28;20514;-74
2021/01/17 04:36:57;;;;;;;16.03;10.23;;;;;;;;;;5060144;28;20445;-74
2021/01/17 04:39:24;;;;;;;14.37;9.33;;;;;;;;;;5059658;28;20484;-74
2021/01/17 04:41:56;;;;;;;14.80;9.07;;;;;;;;;;5059915;28;20445;-74
2021/01/17 04:44:27;;;;;;;12.57;9.30;;;;;;;;;;5059411;28;20968;-74
2021/01/17 04:46:54;;;;;;;13.40;8.80;;;;;;;;;;5059907;28;20469;-74
2021/01/17 04:49:22;;;;;;;12.80;9.10;;;;;;;;;;5059700;28;20524;-74
2021/01/17 04:51:50;;;;;;;13.47;8.97;;;;;;;;;;5059822;28;20453;-75
2021/01/17 04:54:17;;;;;;;12.77;7.73;;;;;;;;;;5059769;28;20469;-74
2021/01/17 04:56:47;;;;;;;12.83;7.90;;;;;;;;;;5059698;28;20445;-74
2021/01/17 04:59:15;;;;;;;13.57;9.03;;;;;;;;;;5059462;28;20446;-75
2021/01/17 05:01:50;;;;;;;14.23;8.67;;;;;;;;;;5059641;28;20504;-75
2021/01/17 05:04:41;;;;;;;11.37;7.50;;;;;;;;;;5046956;28;20453;-74
2021/01/17 05:07:13;;;;;;;14.30;8.53;;;;;;;;;;5044454;28;20536;-74
2021/01/17 05:09:45;;;;;;;16.73;9.80;;;;;;;;;;5059300;28;20631;-74
2021/01/17 05:12:12;;;;;;;14.97;9.63;;;;;;;;;;5059113;28;20434;-74
2021/01/17 05:14:43;;;;;;;13.23;9.03;;;;;;;;;;5059202;28;20564;-74
2021/01/17 05:17:10;;;;;;;13.17;7.00;;;;;;;;;;5059342;28;20448;-75
2021/01/17 05:19:38;;;;;;;12.67;7.70;;;;;;;;;;5059389;28;20516;-74
2021/01/17 05:22:06;;;;;;;14.23;8.83;;;;;;;;;;5059324;28;20453;-74
2021/01/17 05:24:37;;;;;;;14.20;8.53;;;;;;;;;;5059144;28;20504;-74
2021/01/17 05:27:04;;;;;;;12.67;8.43;;;;;;;;;;5058976;28;20481;-75
2021/01/17 05:29:31;;;;;;;11.80;8.10;;;;;;;;;;5058787;28;20455;-74
2021/01/17 05:32:00;;;;;;;11.53;7.80;;;;;;;;;;5058919;28;20834;-74
2021/01/17 05:34:28;;;;;;;14.40;8.27;;;;;;;;;;5058788;28;20496;-75
2021/01/17 05:37:02;;;;;;;13.23;8.37;;;;;;;;;;5059134;28;20467;-75
2021/01/17 05:39:29;;;;;;;11.23;7.97;;;;;;;;;;5058678;28;20544;-74
2021/01/17 05:42:06;;;;;;;10.93;7.17;;;;;;;;;;5058856;28;20828;-74
2021/01/17 05:44:33;;;;;;;10.93;7.57;;;;;;;;;;5058255;28;20910;-75
2021/01/17 05:47:20;;;;;;;10.53;6.97;;;;;;;;;;5058525;28;20532;-74
2021/01/17 05:49:47;;;;;;;13.43;8.83;;;;;;;;;;5058441;28;20500;-75
2021/01/17 05:52:15;;;;;;;12.50;8.03;;;;;;;;;;5058373;28;20812;-74
2021/01/17 05:54:43;;;;;;;13.47;7.97;;;;;;;;;;5058387;28;20991;-75
2021/01/17 05:57:12;;;;;;;13.80;8.50;;;;;;;;;;5058447;28;20532;-75
2021/01/17 05:59:39;;;;;;;12.20;8.57;;;;;;;;;;5058366;28;20450;-75
2021/01/17 06:02:11;;;;;;;15.03;9.33;;;;;;;;;;5058216;28;20477;-75
2021/01/17 06:04:40;;;;;;;14.13;9.40;;;;;;;;;;5058589;28;20477;-75
2021/01/17 06:07:08;;;;;;;14.63;8.50;;;;;;;;;;5058371;28;20469;-75
2021/01/17 06:09:36;;;;;;;12.70;8.73;;;;;;;;;;5058153;28;20886;-75
2021/01/17 06:12:03;;;;;;;13.77;9.23;;;;;;;;;;5058290;28;20469;-75
2021/01/17 06:14:31;;;;;;;15.90;10.13;;;;;;;;;;5058137;28;20473;-74
2021/01/17 06:16:58;;;;;;;19.43;10.57;;;;;;;;;;5058056;28;20491;-75
2021/01/17 06:19:35;;;;;;;15.07;10.03;;;;;;;;;;5058198;28;20449;-75
2021/01/17 06:22:03;;;;;;;17.10;10.33;;;;;;;;;;5058256;28;20523;-75
2021/01/17 06:24:38;;;;;;;14.60;10.40;;;;;;;;;;5057941;28;20501;-74
2021/01/17 06:27:05;;;;;;;16.67;11.27;;;;;;;;;;5058062;28;20440;-74
2021/01/17 06:29:39;;;;;;;14.37;9.00;;;;;;;;;;5057530;28;20992;-75
2021/01/17 06:32:07;;;;;;;15.73;10.17;;;;;;;;;;5058107;28;20444;-74
2021/01/17 06:34:35;;;;;;;16.30;10.43;;;;;;;;;;5057826;28;20480;-75
2021/01/17 06:37:06;;;;;;;14.80;10.30;;;;;;;;;;5057965;28;20452;-75
2021/01/17 06:39:33;;;;;;;21.40;12.13;;;;;;;;;;5056991;28;20845;-74
2021/01/17 06:42:09;;;;;;;20.03;11.97;;;;;;;;;;5057692;28;20455;-74
2021/01/17 06:44:36;;;;;;;18.20;11.70;;;;;;;;;;5057601;28;20469;-75
2021/01/17 06:47:03;;;;;;;19.47;12.10;;;;;;;;;;5057621;28;20488;-74
2021/01/17 06:49:31;;;;;;;16.53;10.53;;;;;;;;;;5057771;28;20449;-75
2021/01/17 06:51:58;;;;;;;15.27;9.70;;;;;;;;;;5054549;28;20568;-74
2021/01/17 06:54:33;;;;;;;16.63;10.57;;;;;;;;;;5057396;28;20489;-74
2021/01/17 06:57:01;;;;;;;16.80;10.77;;;;;;;;;;5057485;28;20437;-75
2021/01/17 06:59:32;;;;;;;18.30;10.87;;;;;;;;;;5057198;28;20469;-75
2021/01/17 07:02:14;;;;;;;16.73;11.47;;;;;;;;;;5057572;28;20472;-74
2021/01/17 07:04:42;;;;;;;18.73;12.00;;;;;;;;;;5057533;28;20560;-74
2021/01/17 07:07:22;;;;;;;14.90;10.83;;;;;;;;;;5057377;28;20503;-75
2021/01/17 07:09:50;;;;;;;19.60;11.20;;;;;;;;;;5057490;28;20441;-75
2021/01/17 07:12:21;;;;;;;19.77;11.53;;;;;;;;;;5057285;28;20444;-75
2021/01/17 07:14:56;;;;;;;15.73;10.73;;;;;;;;;;5056901;28;20563;-75
2021/01/17 07:17:25;;;;;;;15.13;11.47;;;;;;;;;;5057379;28;20535;-75
2021/01/17 07:19:53;;;;;;;14.77;10.73;;;;;;;;;;5057536;28;20536;-74
2021/01/17 07:22:23;;;;;;;17.63;11.67;;;;;;;;;;5057594;28;20437;-75
2021/01/17 07:24:51;;;;;;;17.53;11.63;;;;;;;;;;5057310;28;20465;-74
2021/01/17 07:27:31;;;;;;;17.27;11.10;;;;;;;;;;5057318;28;20452;-75
2021/01/17 07:29:58;;;;;;;21.20;11.53;;;;;;;;;;5056846;28;20455;-74
2021/01/17 07:32:30;;;;;;;15.93;10.57;;;;;;;;;;5057293;28;20890;-75
2021/01/17 07:35:04;;;;;;;17.50;11.33;;;;;;;;;;5057067;28;21030;-74
2021/01/17 07:37:32;;;;;;;17.63;11.13;;;;;;;;;;5057196;28;20463;-75
2021/01/17 07:40:02;;;;;;;18.97;11.27;;;;;;;;;;5057404;28;21032;-75
2021/01/17 07:42:33;;;;;;;13.70;9.53;;;;;;;;;;5057009;28;20530;-74
2021/01/17 07:45:11;;;;;;;14.90;10.27;;;;;;;;;;5056958;28;20819;-75
2021/01/17 07:47:40;;;;;;;16.53;10.47;;;;;;;;;;5054418;28;20441;-75
2021/01/17 07:50:09;;;;;;;17.37;10.93;;;;;;;;;;5057010;28;20450;-75
2021/01/17 07:52:39;;;;;;;14.67;10.50;;;;;;;;;;5059434;28;20516;-75
2021/01/17 07:55:10;;;;;;;13.43;8.80;;;;;;;;;;5061058;28;20461;-75
2021/01/17 07:57:37;;;;;;;14.07;9.63;;;;;;;;;;5060366;28;20532;-75
2021/01/17 08:00:05;;;;;;;14.30;9.27;;;;;;;;;;5060726;28;20453;-75
2021/01/17 08:02:32;;;;;;;14.07;9.03;;;;;;;;;;5059324;28;20544;-73
2021/01/17 08:05:00;;;;;;;13.03;8.87;;;;;;;;;;5062118;28;20533;-72
2021/01/17 08:07:30;;;;;;;14.63;8.90;;;;;;;;;;5064753;28;20451;-71
2021/01/17 08:09:58;;;;;;;14.57;8.37;;;;;;;;;;5066636;28;20529;-71
2021/01/17 08:12:39;;;;;;;12.53;8.10;;;;;;;;;;5060458;28;20446;-74
2021/01/17 08:15:27;;;;;;;11.77;7.50;;;;;;;;;;5049267;28;20458;-75
2021/01/17 08:17:54;;;;;;;12.60;8.97;;;;;;;;;;5060844;28;21021;-75
2021/01/17 08:20:22;;;;;;;15.30;9.27;;;;;;;;;;5049657;28;20453;-76
2021/01/17 08:22:49;;;;;;;17.93;9.77;;;;;;;;;;5060290;28;20509;-75
2021/01/17 08:25:16;;;;;;;13.17;8.80;;;;;;;;;;5060319;28;20471;-75
2021/01/17 08:27:45;;;;;;;12.87;8.80;;;;;;;;;;5060030;28;20508;-74
2021/01/17 08:30:16;;;;;;;15.30;9.27;;;;;;;;;;5058325;28;20584;-76
2021/01/17 08:32:44;;;;;;;14.37;9.53;;;;;;;;;;5059628;28;20458;-75
2021/01/17 08:35:29;;;;;;;16.17;10.73;;;;;;;;;;5059352;28;20477;-75
2021/01/17 08:37:57;;;;;;;15.37;10.13;;;;;;;;;;5058133;28;20467;-75
2021/01/17 08:40:39;;;;;;;19.43;11.73;;;;;;;;;;5056690;28;20524;-75
2021/01/17 08:43:07;;;;;;;16.23;10.50;;;;;;;;;;5058018;28;20449;-74
2021/01/17 08:45:36;;;;;;;14.70;9.90;;;;;;;;;;5058646;28;20472;-75
2021/01/17 08:48:21;;;;;;;12.10;9.23;;;;;;;;;;5058642;28;20967;-74
2021/01/17 08:50:49;;;;;;;16.43;10.63;;;;;;;;;;5056902;28;20832;-75
2021/01/17 08:53:16;;;;;;;14.20;10.20;;;;;;;;;;5059077;28;20456;-74
2021/01/17 08:55:44;;;;;;;16.83;11.60;;;;;;;;;;5058662;28;21322;-75
2021/01/17 08:58:14;;;;;;;15.97;10.50;;;;;;;;;;5058787;28;20455;-75
2021/01/17 09:01:02;;;;;;;14.33;9.80;;;;;;;;;;5058512;28;20475;-74
2021/01/17 09:03:30;;;;;;;18.17;10.67;;;;;;;;;;5051001;28;20446;-75
2021/01/17 09:05:58;;;;;;;19.60;11.53;;;;;;;;;;5058875;28;20560;-75
2021/01/17 09:08:25;;;;;;;15.53;10.43;;;;;;;;;;5055045;28;20524;-74
2021/01/17 09:10:53;;;;;;;17.13;10.57;;;;;;;;;;5058710;28;20539;-74
2021/01/17 09:13:22;;;;;;;16.23;11.37;;;;;;;;;;5058642;28;20442;-75
2021/01/17 09:15:57;;;;;;;18.90;11.87;;;;;;;;;;5059479;28;20501;-74
2021/01/17 09:18:25;;;;;;;42.43;25.83;;;;;;;;;;5057175;28;20916;-74
2021/01/17 09:20:55;;;;;;;22.33;14.13;;;;;;;;;;5059125;28;20446;-75
2021/01/17 09:23:23;;;;;;;17.33;11.27;;;;;;;;;;5060472;28;20441;-74
2021/01/17 09:25:55;;;;;;;18.93;11.27;;;;;;;;;;5061098;28;20960;-74
2021/01/17 09:28:23;;;;;;;16.10;10.97;;;;;;;;;;5058699;28;20449;-75
2021/01/17 09:30:51;;;;;;;17.97;11.97;;;;;;;;;;5058287;28;20509;-75
2021/01/17 09:33:19;;;;;;;17.07;12.60;;;;;;;;;;5058961;28;20500;-74
2021/01/17 09:35:47;;;;;;;19.83;13.33;;;;;;;;;;5057708;28;20968;-74
2021/01/17 09:38:15;;;;;;;20.47;12.27;;;;;;;;;;5057786;28;20473;-74
2021/01/17 09:40:42;;;;;;;16.80;10.93;;;;;;;;;;5057506;28;20521;-74
2021/01/17 09:43:09;;;;;;;20.57;12.47;;;;;;;;;;5057909;28;20458;-74
2021/01/17 09:45:38;;;;;;;16.07;11.17;;;;;;;;;;5056605;28;20462;-75
2021/01/17 09:48:06;;;;;;;16.03;10.57;;;;;;;;;;5057895;28;20446;-73
2021/01/17 09:50:33;;;;;;;20.13;11.80;;;;;;;;;;5057774;28;20509;-74
2021/01/17 09:53:06;;;;;;;17.27;11.17;;;;;;;;;;5057874;28;20516;-74
2021/01/17 09:55:34;;;;;;;19.60;13.63;;;;;;;;;;5057568;28;20462;-74
2021/01/17 09:58:05;;;;;;;19.40;12.00;;;;;;;;;;5057280;28;20468;-74
2021/01/17 10:00:35;;;;;;;20.33;13.47;;;;;;;;;;5058350;28;20450;-74
2021/01/17 10:03:08;;;;;;;21.67;13.80;;;;;;;;;;5058858;28;20453;-74
2021/01/17 10:05:36;;;;;;;19.40;12.87;;;;;;;;;;5059575;28;20501;-74
2021/01/17 10:08:04;;;;;;;21.10;12.90;;;;;;;;;;5056369;28;20440;-74
2021/01/17 10:10:31;;;;;;;23.10;14.33;;;;;;;;;;5057986;28;20519;-74
2021/01/17 10:13:02;;;;;;;21.43;15.00;;;;;;;;;;5057772;28;20480;-74
2021/01/17 10:15:29;;;;;;;22.30;14.67;;;;;;;;;;5056815;28;20457;-74
2021/01/17 10:17:56;;;;;;;20.37;13.17;;;;;;;;;;5056209;28;20442;-74
2021/01/17 10:20:24;;;;;;;20.43;13.97;;;;;;;;;;5057542;28;21020;-74
2021/01/17 10:22:56;;;;;;;21.37;13.50;;;;;;;;;;5057081;28;20456;-74
2021/01/17 10:25:23;;;;;;;22.63;14.50;;;;;;;;;;5050967;28;20497;-74
2021/01/17 10:27:57;;;;;;;24.63;14.03;;;;;;;;;;5056817;28;20465;-73
2021/01/17 10:30:26;;;;;;;19.17;13.27;;;;;;;;;;5057352;28;20441;-74
2021/01/17 10:33:01;;;;;;;21.53;14.37;;;;;;;;;;5056691;28;20449;-74
2021/01/17 10:35:30;;;;;;;22.07;13.97;;;;;;;;;;5056972;28;20460;-74
2021/01/17 10:37:57;;;;;;;22.63;14.27;;;;;;;;;;5055844;28;20503;-73
2021/01/17 10:40:27;;;;;;;24.43;15.23;;;;;;;;;;5057319;28;20438;-73
2021/01/17 10:42:55;;;;;;;22.00;13.47;;;;;;;;;;5056545;28;20951;-73
2021/01/17 10:45:25;;;;;;;26.97;15.53;;;;;;;;;;5057004;28;20493;-74
2021/01/17 10:47:56;;;;;;;20.63;13.10;;;;;;;;;;5056691;28;20453;-73
2021/01/17 10:50:24;;;;;;;26.43;16.13;;;;;;;;;;5050002;28;20532;-73
2021/01/17 10:52:59;;;;;;;24.60;15.33;;;;;;;;;;5056936;28;20449;-74
2021/01/17 10:55:28;;;;;;;24.30;14.40;;;;;;;;;;5049204;28;20839;-73
2021/01/17 10:57:55;;;;;;;21.30;13.03;;;;;;;;;;5056127;28;20520;-71
2021/01/17 11:00:22;;;;;;;20.53;12.73;;;;;;;;;;5056600;28;20959;-71
2021/01/17 11:02:59;;;;;;;21.33;13.33;;;;;;;;;;5054293;28;20513;-71
2021/01/17 11:05:26;;;;;;;17.70;12.40;;;;;;;;;;5056459;28;20465;-71
2021/01/17 11:07:53;;;;;;;23.17;13.57;;;;;;;;;;5056592;28;20535;-72
2021/01/17 11:10:22;;;;;;;19.50;12.53;;;;;;;;;;5056931;28;20524;-72
2021/01/17 11:12:50;;;;;;;24.33;13.70;;;;;;;;;;5055089;28;21679;-72
2021/01/17 11:15:19;;;;;;;20.40;12.60;;;;;;;;;;5056632;28;21048;-73
2021/01/17 11:17:54;;;;;;;17.77;12.23;;;;;;;;;;5056368;28;20449;-74
2021/01/17 11:20:25;;;;;;;21.27;12.43;;;;;;;;;;5056737;28;20450;-74
2021/01/17 11:22:52;;;;;;;17.90;13.23;;;;;;;;;;5053340;28;20445;-74
2021/01/17 11:25:20;;;;;;;21.77;13.67;;;;;;;;;;5057161;28;21015;-73
2021/01/17 11:27:47;;;;;;;20.40;12.50;;;;;;;;;;5060003;28;20484;-73
2021/01/17 11:30:17;;;;;;;21.40;14.73;;;;;;;;;;5060610;28;20524;-73
2021/01/17 11:32:44;;;;;;;22.07;13.47;;;;;;;;;;5060445;28;20487;-73
2021/01/17 11:35:24;;;;;;;24.63;14.07;;;;;;;;;;5055492;28;20557;-73
2021/01/17 11:37:51;;;;;;;26.90;15.80;;;;;;;;;;5060253;28;21671;-74
2021/01/17 11:40:20;;;;;;;24.13;15.37;;;;;;;;;;5060908;28;20442;-74
2021/01/17 11:42:48;;;;;;;24.93;14.63;;;;;;;;;;5059971;28;20548;-74
2021/01/17 11:45:16;;;;;;;25.53;15.77;;;;;;;;;;5060423;28;20557;-76
2021/01/17 11:47:43;;;;;;;21.97;14.53;;;;;;;;;;5060395;28;20453;-74
2021/01/17 11:50:14;;;;;;;20.37;13.73;;;;;;;;;;5060254;28;20873;-76
2021/01/17 11:52:42;;;;;;;24.27;15.23;;;;;;;;;;5059964;28;20563;-73
2021/01/17 11:55:10;;;;;;;24.43;15.57;;;;;;;;;;5058769;28;20462;-74
2021/01/17 11:57:37;;;;;;;27.37;15.97;;;;;;;;;;5058974;28;20485;-74
2021/01/17 12:00:06;;;;;;;23.90;15.13;;;;;;;;;;5059583;28;20437;-73
2021/01/17 12:02:39;;;;;;;25.53;14.43;;;;;;;;;;5057640;28;20508;-73
2021/01/17 12:05:07;;;;;;;19.23;13.10;;;;;;;;;;5058415;28;20480;-73
2021/01/17 12:07:34;;;;;;;24.33;14.23;;;;;;;;;;5058973;28;20442;-73
2021/01/17 12:10:02;;;;;;;19.23;13.23;;;;;;;;;;5059427;28;21007;-73
2021/01/17 12:12:33;;;;;;;23.30;14.50;;;;;;;;;;5059237;28;20564;-73
2021/01/17 12:15:00;;;;;;;24.97;15.17;;;;;;;;;;5059396;28;20464;-73
2021/01/17 12:17:27;;;;;;;22.23;14.83;;;;;;;;;;5058701;28;20473;-73
2021/01/17 12:19:55;;;;;;;25.20;16.50;;;;;;;;;;5058417;28;20453;-73
2021/01/17 12:22:27;;;;;;;24.67;14.63;;;;;;;;;;5059637;28;20499;-73
2021/01/17 12:24:54;;;;;;;22.90;15.07;;;;;;;;;;5059278;28;20469;-72
2021/01/17 12:27:21;;;;;;;23.97;14.27;;;;;;;;;;5058113;28;20443;-73
2021/01/17 12:29:48;;;;;;;24.47;15.23;;;;;;;;;;5057531;28;20582;-73
2021/01/17 12:32:15;;;;;;;21.13;13.77;;;;;;;;;;5058010;28;20485;-73
2021/01/17 12:34:46;;;;;;;23.03;14.07;;;;;;;;;;5057974;28;20903;-74
2021/01/17 12:37:13;;;;;;;21.63;15.10;;;;;;;;;;5058341;28;20525;-72
2021/01/17 12:39:40;;;;;;;27.43;16.53;;;;;;;;;;5058835;28;21004;-73
2021/01/17 12:42:07;;;;;;;26.83;14.53;;;;;;;;;;5059030;28;20464;-73
2021/01/17 12:44:34;;;;;;;23.47;16.33;;;;;;;;;;5059004;28;20540;-73
2021/01/17 12:47:01;;;;;;;24.47;15.53;;;;;;;;;;5058966;28;20528;-74
2021/01/17 12:49:31;;;;;;;24.90;15.87;;;;;;;;;;5059252;28;20804;-73
2021/01/17 12:51:58;;;;;;;25.60;15.07;;;;;;;;;;5059097;28;20511;-73
2021/01/17 12:54:25;;;;;;;26.00;16.60;;;;;;;;;;5056797;28;20449;-73
2021/01/17 12:56:57;;;;;;;25.10;16.13;;;;;;;;;;5059107;28;20480;-73
2021/01/17 12:59:24;;;;;;;26.00;16.80;;;;;;;;;;5058908;28;20458;-73
2021/01/17 13:01:50;;;;;;;27.37;17.27;;;;;;;;;;5058609;28;20437;-73
2021/01/17 13:04:18;;;;;;;24.30;16.97;;;;;;;;;;5058844;28;20465;-73
2021/01/17 13:06:45;;;;;;;30.27;18.57;;;;;;;;;;5058583;28;20446;-73
2021/01/17 13:09:12;;;;;;;29.60;17.87;;;;;;;;;;5058924;28;20441;-73
2021/01/17 13:11:39;;;;;;;29.80;17.47;;;;;;;;;;5058411;28;20607;-73
2021/01/17 13:14:06;;;;;;;25.17;16.50;;;;;;;;;;5058542;28;20476;-73
2021/01/17 13:16:33;;;;;;;26.43;17.67;;;;;;;;;;5058759;28;20437;-73
2021/01/17 13:19:01;;;;;;;30.43;19.17;;;;;;;;;;5057256;28;20444;-73
2021/01/17 13:21:28;;;;;;;27.97;17.33;;;;;;;;;;5058685;28;20469;-73
2021/01/17 13:23:55;;;;;;;28.40;19.10;;;;;;;;;;5058641;28;20445;-73
2021/01/17 13:26:23;;;;;;;29.33;18.03;;;;;;;;;;5058556;28;20449;-73
2021/01/17 13:28:49;;;;;;;33.00;19.80;;;;;;;;;;5057748;28;20815;-73
2021/01/17 13:31:16;;;;;;;27.83;18.77;;;;;;;;;;5058513;28;21071;-73
2021/01/17 13:33:44;;;;;;;28.53;18.40;;;;;;;;;;5058262;28;20532;-73
2021/01/17 13:36:11;;;;;;;34.00;20.73;;;;;;;;;;5058375;28;20869;-73
2021/01/17 13:38:38;;;;;;;90.17;32.50;;;;;;;;;;5056976;28;20470;-73
2021/01/17 13:41:05;;;;;;;33.47;21.30;;;;;;;;;;5058116;28;20858;-73
2021/01/17 13:43:33;;;;;;;31.53;19.57;;;;;;;;;;5058032;28;20461;-74
2021/01/17 13:46:01;;;;;;;34.17;19.40;;;;;;;;;;5058195;28;20469;-73
2021/01/17 13:48:29;;;;;;;30.07;18.97;;;;;;;;;;5058045;28;20445;-73
2021/01/17 13:50:56;;;;;;;31.70;19.37;;;;;;;;;;5058083;28;20456;-73
2021/01/17 13:53:23;;;;;;;27.93;19.07;;;;;;;;;;5057981;28;20455;-73
2021/01/17 13:55:50;;;;;;;30.70;18.97;;;;;;;;;;5057839;28;20501;-73
2021/01/17 13:58:17;;;;;;;29.57;18.20;;;;;;;;;;5057523;28;20932;-73
2021/01/17 14:00:45;;;;;;;25.97;18.13;;;;;;;;;;5057941;28;20489;-73
2021/01/17 14:03:12;;;;;;;26.90;16.77;;;;;;;;;;5057613;28;21028;-73
2021/01/17 14:05:39;;;;;;;25.67;17.60;;;;;;;;;;5056894;28;20549;-73
2021/01/17 14:08:06;;;;;;;24.50;16.20;;;;;;;;;;5057752;28;20215;-73
2021/01/17 14:10:33;;;;;;;23.97;14.93;;;;;;;;;;5057606;28;20207;-73
2021/01/17 14:13:00;;;;;;;25.07;16.03;;;;;;;;;;5057366;28;20226;-73
2021/01/17 14:15:27;;;;;;;23.00;15.57;;;;;;;;;;5057269;28;20253;-73
2021/01/17 14:17:55;;;;;;;25.27;16.37;;;;;;;;;;5057320;28;20245;-73
2021/01/17 14:20:24;;;;;;;26.03;16.40;;;;;;;;;;5057451;28;20472;-73
2021/01/17 14:22:51;;;;;;;28.17;18.37;;;;;;;;;;5057311;28;20442;-73
2021/01/17 14:25:20;;;;;;;26.37;16.20;;;;;;;;;;5057321;28;20469;-73
2021/01/17 14:27:47;;;;;;;25.50;17.13;;;;;;;;;;5057190;28;20449;-73
2021/01/17 14:30:14;;;;;;;28.03;16.67;;;;;;;;;;5057403;28;20453;-73
2021/01/17 14:32:41;;;;;;;22.33;14.33;;;;;;;;;;5057162;28;20852;-73
2021/01/17 14:35:10;;;;;;;26.57;15.30;;;;;;;;;;5057139;28;20458;-73